sensor_id;sensor_type;location;lat;lon;timestamp;temperature;humidity
23100;DHT22;53791;50.696;4.396;2023-09-18T00:00:28;21.00;99.90
23100;DHT22;53791;50.696;4.396;2023-09-18T00:02:57;21.00;99.90
23100;DHT22;53791;50.696;4.396;2023-09-18T00:05:24;21.00;99.90
23100;DHT22;53791;50.696;4.396;2023-09-18T00:07:52;21.00;99.90
23100;DHT22;53791;50.696;4.396;2023-09-18T00:10:19;21.00;99.90
23100;DHT22;53791;50.696;4.396;2023-09-18T00:12:47;21.00;99.90
23100;DHT22;53791;50.696;4.396;2023-09-18T00:15:14;21.00;99.90
23100;DHT22;53791;50.696;4.396;2023-09-18T00:17:42;20.80;99.90
23100;DHT22;53791;50.696;4.396;2023-09-18T00:20:10;20.80;99.90
23100;DHT22;53791;50.696;4.396;2023-09-18T00:22:38;20.70;99.90
23100;DHT22;53791;50.696;4.396;2023-09-18T00:25:05;20.70;99.90
23100;DHT22;53791;50.696;4.396;2023-09-18T00:27:33;20.80;99.90
23100;DHT22;53791;50.696;4.396;2023-09-18T00:30:04;20.80;99.90
23100;DHT22;53791;50.696;4.396;2023-09-18T00:32:32;20.80;99.90
23100;DHT22;53791;50.696;4.396;2023-09-18T00:35:00;20.80;99.90
23100;DHT22;53791;50.696;4.396;2023-09-18T00:37:29;20.80;99.90
23100;DHT22;53791;50.696;4.396;2023-09-18T00:39:56;20.80;99.90
23100;DHT22;53791;50.696;4.396;2023-09-18T00:42:25;20.80;99.90
23100;DHT22;53791;50.696;4.396;2023-09-18T00:44:52;20.80;99.90
23100;DHT22;53791;50.696;4.396;2023-09-18T00:47:20;20.80;99.90
23100;DHT22;53791;50.696;4.396;2023-09-18T00:49:49;20.80;99.90
23100;DHT22;53791;50.696;4.396;2023-09-18T00:52:20;20.80;99.90
23100;DHT22;53791;50.696;4.396;2023-09-18T00:54:49;20.80;99.90
23100;DHT22;53791;50.696;4.396;2023-09-18T00:57:17;20.80;99.90
23100;DHT22;53791;50.696;4.396;2023-09-18T00:59:44;20.80;99.90
23100;DHT22;53791;50.696;4.396;2023-09-18T01:02:12;20.80;99.90
23100;DHT22;53791;50.696;4.396;2023-09-18T01:04:40;20.80;99.90
23100;DHT22;53791;50.696;4.396;2023-09-18T01:07:10;20.80;99.90
23100;DHT22;53791;50.696;4.396;2023-09-18T01:09:38;20.80;99.90
23100;DHT22;53791;50.696;4.396;2023-09-18T01:12:22;20.80;99.90
23100;DHT22;53791;50.696;4.396;2023-09-18T01:15:06;20.90;99.90
23100;DHT22;53791;50.696;4.396;2023-09-18T01:17:35;20.90;99.90
23100;DHT22;53791;50.696;4.396;2023-09-18T01:20:05;20.90;99.90
23100;DHT22;53791;50.696;4.396;2023-09-18T01:22:32;20.90;99.90
23100;DHT22;53791;50.696;4.396;2023-09-18T01:25:00;20.80;99.90
23100;DHT22;53791;50.696;4.396;2023-09-18T01:27:27;20.80;99.90
23100;DHT22;53791;50.696;4.396;2023-09-18T01:29:55;20.70;99.90
23100;DHT22;53791;50.696;4.396;2023-09-18T01:32:25;20.70;99.90
23100;DHT22;53791;50.696;4.396;2023-09-18T01:34:55;20.70;99.90
23100;DHT22;53791;50.696;4.396;2023-09-18T01:37:26;20.50;99.90
23100;DHT22;53791;50.696;4.396;2023-09-18T01:39:53;20.40;99.90
23100;DHT22;53791;50.696;4.396;2023-09-18T01:42:23;20.30;99.90
23100;DHT22;53791;50.696;4.396;2023-09-18T01:44:53;20.20;99.90
23100;DHT22;53791;50.696;4.396;2023-09-18T01:47:21;20.30;99.90
23100;DHT22;53791;50.696;4.396;2023-09-18T01:49:53;20.30;99.90
23100;DHT22;53791;50.696;4.396;2023-09-18T01:52:22;20.20;99.90
23100;DHT22;53791;50.696;4.396;2023-09-18T01:54:49;20.30;99.90
23100;DHT22;53791;50.696;4.396;2023-09-18T01:57:17;20.30;99.90
23100;DHT22;53791;50.696;4.396;2023-09-18T01:59:45;20.20;99.90
23100;DHT22;53791;50.696;4.396;2023-09-18T02:02:12;20.10;99.90
23100;DHT22;53791;50.696;4.396;2023-09-18T02:04:40;20.20;99.90
23100;DHT22;53791;50.696;4.396;2023-09-18T02:07:08;20.20;99.90
23100;DHT22;53791;50.696;4.396;2023-09-18T02:09:36;20.20;99.90
23100;DHT22;53791;50.696;4.396;2023-09-18T02:12:04;20.20;99.90
23100;DHT22;53791;50.696;4.396;2023-09-18T02:14:32;20.20;99.90
23100;DHT22;53791;50.696;4.396;2023-09-18T02:17:00;20.10;99.90
23100;DHT22;53791;50.696;4.396;2023-09-18T02:19:27;20.30;99.90
23100;DHT22;53791;50.696;4.396;2023-09-18T02:21:58;20.30;99.90
23100;DHT22;53791;50.696;4.396;2023-09-18T02:24:26;20.30;99.90
23100;DHT22;53791;50.696;4.396;2023-09-18T02:26:53;20.20;99.90
23100;DHT22;53791;50.696;4.396;2023-09-18T02:29:21;20.10;99.90
23100;DHT22;53791;50.696;4.396;2023-09-18T02:31:49;19.90;99.90
23100;DHT22;53791;50.696;4.396;2023-09-18T02:34:16;19.80;99.90
23100;DHT22;53791;50.696;4.396;2023-09-18T02:36:45;19.70;99.90
23100;DHT22;53791;50.696;4.396;2023-09-18T02:39:13;19.60;99.90
23100;DHT22;53791;50.696;4.396;2023-09-18T02:41:41;19.50;99.90
23100;DHT22;53791;50.696;4.396;2023-09-18T02:44:08;19.50;99.90
23100;DHT22;53791;50.696;4.396;2023-09-18T02:46:37;19.50;99.90
23100;DHT22;53791;50.696;4.396;2023-09-18T02:49:05;19.50;99.90
23100;DHT22;53791;50.696;4.396;2023-09-18T02:51:32;19.50;99.90
23100;DHT22;53791;50.696;4.396;2023-09-18T02:54:00;19.50;99.90
23100;DHT22;53791;50.696;4.396;2023-09-18T02:56:29;19.50;99.90
23100;DHT22;53791;50.696;4.396;2023-09-18T02:58:56;19.50;99.90
23100;DHT22;53791;50.696;4.396;2023-09-18T03:01:24;19.50;99.90
23100;DHT22;53791;50.696;4.396;2023-09-18T03:03:54;19.50;99.90
23100;DHT22;53791;50.696;4.396;2023-09-18T03:06:22;19.50;99.90
23100;DHT22;53791;50.696;4.396;2023-09-18T03:08:50;19.50;99.90
23100;DHT22;53791;50.696;4.396;2023-09-18T03:11:17;19.50;99.90
23100;DHT22;53791;50.696;4.396;2023-09-18T03:13:46;19.50;99.90
23100;DHT22;53791;50.696;4.396;2023-09-18T03:16:14;19.50;99.90
23100;DHT22;53791;50.696;4.396;2023-09-18T03:18:42;19.50;99.90
23100;DHT22;53791;50.696;4.396;2023-09-18T03:21:09;19.50;99.90
23100;DHT22;53791;50.696;4.396;2023-09-18T03:23:37;19.50;99.90
23100;DHT22;53791;50.696;4.396;2023-09-18T03:26:04;19.50;99.90
23100;DHT22;53791;50.696;4.396;2023-09-18T03:28:32;19.50;99.90
23100;DHT22;53791;50.696;4.396;2023-09-18T03:30:59;19.40;99.90
23100;DHT22;53791;50.696;4.396;2023-09-18T03:33:27;19.40;99.90
23100;DHT22;53791;50.696;4.396;2023-09-18T03:35:54;19.40;99.90
23100;DHT22;53791;50.696;4.396;2023-09-18T03:38:24;19.40;99.90
23100;DHT22;53791;50.696;4.396;2023-09-18T03:40:51;19.50;99.90
23100;DHT22;53791;50.696;4.396;2023-09-18T03:43:19;19.50;99.90
23100;DHT22;53791;50.696;4.396;2023-09-18T03:45:47;19.40;99.90
23100;DHT22;53791;50.696;4.396;2023-09-18T03:48:15;19.40;99.90
23100;DHT22;53791;50.696;4.396;2023-09-18T03:50:42;19.40;99.90
23100;DHT22;53791;50.696;4.396;2023-09-18T03:53:10;19.40;99.90
23100;DHT22;53791;50.696;4.396;2023-09-18T03:55:37;19.30;99.90
23100;DHT22;53791;50.696;4.396;2023-09-18T03:58:05;19.30;99.90
23100;DHT22;53791;50.696;4.396;2023-09-18T04:00:33;19.20;99.90
23100;DHT22;53791;50.696;4.396;2023-09-18T04:03:00;19.30;99.90
23100;DHT22;53791;50.696;4.396;2023-09-18T04:05:28;19.20;99.90
23100;DHT22;53791;50.696;4.396;2023-09-18T04:07:55;19.20;99.90
23100;DHT22;53791;50.696;4.396;2023-09-18T04:10:23;19.20;99.90
23100;DHT22;53791;50.696;4.396;2023-09-18T04:12:50;19.20;99.90
23100;DHT22;53791;50.696;4.396;2023-09-18T04:15:18;19.30;99.90
23100;DHT22;53791;50.696;4.396;2023-09-18T04:17:46;19.40;99.90
23100;DHT22;53791;50.696;4.396;2023-09-18T04:20:14;19.30;99.90
23100;DHT22;53791;50.696;4.396;2023-09-18T04:22:44;19.30;99.90
23100;DHT22;53791;50.696;4.396;2023-09-18T04:25:14;19.30;99.90
23100;DHT22;53791;50.696;4.396;2023-09-18T04:27:41;19.30;99.90
23100;DHT22;53791;50.696;4.396;2023-09-18T04:30:09;19.30;99.90
23100;DHT22;53791;50.696;4.396;2023-09-18T04:32:37;19.30;99.90
23100;DHT22;53791;50.696;4.396;2023-09-18T04:35:05;19.30;99.90
23100;DHT22;53791;50.696;4.396;2023-09-18T04:37:35;19.30;99.90
23100;DHT22;53791;50.696;4.396;2023-09-18T04:40:04;19.30;99.90
23100;DHT22;53791;50.696;4.396;2023-09-18T04:42:33;19.30;99.90
23100;DHT22;53791;50.696;4.396;2023-09-18T04:45:01;19.30;99.90
23100;DHT22;53791;50.696;4.396;2023-09-18T04:47:29;19.20;99.90
23100;DHT22;53791;50.696;4.396;2023-09-18T04:49:57;19.20;99.90
23100;DHT22;53791;50.696;4.396;2023-09-18T04:52:24;19.20;99.90
23100;DHT22;53791;50.696;4.396;2023-09-18T04:54:52;19.10;99.90
23100;DHT22;53791;50.696;4.396;2023-09-18T04:57:20;19.10;99.90
23100;DHT22;53791;50.696;4.396;2023-09-18T04:59:49;19.10;99.90
23100;DHT22;53791;50.696;4.396;2023-09-18T05:02:16;19.10;99.90
23100;DHT22;53791;50.696;4.396;2023-09-18T05:04:44;19.10;99.90
23100;DHT22;53791;50.696;4.396;2023-09-18T05:07:11;19.00;99.90
23100;DHT22;53791;50.696;4.396;2023-09-18T05:09:39;19.00;99.90
23100;DHT22;53791;50.696;4.396;2023-09-18T05:12:08;19.10;99.90
23100;DHT22;53791;50.696;4.396;2023-09-18T05:14:37;19.00;99.90
23100;DHT22;53791;50.696;4.396;2023-09-18T05:17:05;19.00;99.90
23100;DHT22;53791;50.696;4.396;2023-09-18T05:19:32;19.00;99.90
23100;DHT22;53791;50.696;4.396;2023-09-18T05:22:00;19.00;99.90
23100;DHT22;53791;50.696;4.396;2023-09-18T05:24:27;18.90;99.90
23100;DHT22;53791;50.696;4.396;2023-09-18T05:26:55;18.90;99.90
23100;DHT22;53791;50.696;4.396;2023-09-18T05:29:23;18.90;99.90
23100;DHT22;53791;50.696;4.396;2023-09-18T05:31:50;18.90;99.90
23100;DHT22;53791;50.696;4.396;2023-09-18T05:34:18;18.80;99.90
23100;DHT22;53791;50.696;4.396;2023-09-18T05:36:46;18.80;99.90
23100;DHT22;53791;50.696;4.396;2023-09-18T05:39:13;18.80;99.90
23100;DHT22;53791;50.696;4.396;2023-09-18T05:41:41;18.80;99.90
23100;DHT22;53791;50.696;4.396;2023-09-18T05:44:08;18.80;99.90
23100;DHT22;53791;50.696;4.396;2023-09-18T05:46:36;18.60;99.90
23100;DHT22;53791;50.696;4.396;2023-09-18T05:49:04;18.80;99.90
23100;DHT22;53791;50.696;4.396;2023-09-18T05:51:32;18.70;99.90
23100;DHT22;53791;50.696;4.396;2023-09-18T05:54:00;18.80;99.90
23100;DHT22;53791;50.696;4.396;2023-09-18T05:56:28;18.70;99.90
23100;DHT22;53791;50.696;4.396;2023-09-18T05:58:56;18.70;99.90
23100;DHT22;53791;50.696;4.396;2023-09-18T06:01:23;18.70;99.90
23100;DHT22;53791;50.696;4.396;2023-09-18T06:03:51;18.70;99.90
23100;DHT22;53791;50.696;4.396;2023-09-18T06:06:19;18.60;99.90
23100;DHT22;53791;50.696;4.396;2023-09-18T06:08:46;18.60;99.90
23100;DHT22;53791;50.696;4.396;2023-09-18T06:11:14;18.70;99.90
23100;DHT22;53791;50.696;4.396;2023-09-18T06:13:41;18.70;99.90
23100;DHT22;53791;50.696;4.396;2023-09-18T06:16:09;18.60;99.90
23100;DHT22;53791;50.696;4.396;2023-09-18T06:18:36;18.70;99.90
23100;DHT22;53791;50.696;4.396;2023-09-18T06:21:05;18.80;99.90
23100;DHT22;53791;50.696;4.396;2023-09-18T06:23:33;18.70;99.90
23100;DHT22;53791;50.696;4.396;2023-09-18T06:26:01;18.80;99.90
23100;DHT22;53791;50.696;4.396;2023-09-18T06:28:29;18.80;99.90
23100;DHT22;53791;50.696;4.396;2023-09-18T06:30:56;18.70;99.90
23100;DHT22;53791;50.696;4.396;2023-09-18T06:33:24;18.70;99.90
23100;DHT22;53791;50.696;4.396;2023-09-18T06:35:51;18.70;99.90
23100;DHT22;53791;50.696;4.396;2023-09-18T06:38:19;18.70;99.90
23100;DHT22;53791;50.696;4.396;2023-09-18T06:40:47;18.60;99.90
23100;DHT22;53791;50.696;4.396;2023-09-18T06:43:14;18.70;99.90
23100;DHT22;53791;50.696;4.396;2023-09-18T06:45:42;18.60;99.90
23100;DHT22;53791;50.696;4.396;2023-09-18T06:48:11;18.60;99.90
23100;DHT22;53791;50.696;4.396;2023-09-18T06:50:40;18.70;99.90
23100;DHT22;53791;50.696;4.396;2023-09-18T06:53:07;18.80;99.90
23100;DHT22;53791;50.696;4.396;2023-09-18T06:55:37;18.80;99.90
23100;DHT22;53791;50.696;4.396;2023-09-18T06:58:05;18.70;99.90
23100;DHT22;53791;50.696;4.396;2023-09-18T07:00:32;18.70;99.90
23100;DHT22;53791;50.696;4.396;2023-09-18T07:03:00;18.60;99.90
23100;DHT22;53791;50.696;4.396;2023-09-18T07:05:27;18.70;99.90
23100;DHT22;53791;50.696;4.396;2023-09-18T07:07:55;18.70;99.90
23100;DHT22;53791;50.696;4.396;2023-09-18T07:10:23;18.80;99.90
23100;DHT22;53791;50.696;4.396;2023-09-18T07:12:51;18.90;99.90
23100;DHT22;53791;50.696;4.396;2023-09-18T07:15:18;18.90;99.90
23100;DHT22;53791;50.696;4.396;2023-09-18T07:17:46;18.90;99.90
23100;DHT22;53791;50.696;4.396;2023-09-18T07:20:14;18.90;99.90
23100;DHT22;53791;50.696;4.396;2023-09-18T07:22:47;18.90;99.90
23100;DHT22;53791;50.696;4.396;2023-09-18T07:25:15;18.90;99.90
23100;DHT22;53791;50.696;4.396;2023-09-18T07:27:43;19.00;99.90
23100;DHT22;53791;50.696;4.396;2023-09-18T07:30:11;19.00;99.90
23100;DHT22;53791;50.696;4.396;2023-09-18T07:32:41;19.10;99.90
23100;DHT22;53791;50.696;4.396;2023-09-18T07:35:10;19.20;99.90
23100;DHT22;53791;50.696;4.396;2023-09-18T07:37:37;19.40;99.90
23100;DHT22;53791;50.696;4.396;2023-09-18T07:40:06;19.60;99.90
23100;DHT22;53791;50.696;4.396;2023-09-18T07:42:34;19.70;99.90
23100;DHT22;53791;50.696;4.396;2023-09-18T07:45:02;19.90;99.90
23100;DHT22;53791;50.696;4.396;2023-09-18T07:47:30;20.10;99.90
23100;DHT22;53791;50.696;4.396;2023-09-18T07:49:57;20.10;99.90
23100;DHT22;53791;50.696;4.396;2023-09-18T07:52:25;20.20;99.90
23100;DHT22;53791;50.696;4.396;2023-09-18T07:54:52;20.30;99.90
23100;DHT22;53791;50.696;4.396;2023-09-18T07:57:20;20.50;99.90
23100;DHT22;53791;50.696;4.396;2023-09-18T07:59:49;20.60;99.90
23100;DHT22;53791;50.696;4.396;2023-09-18T08:02:17;20.80;99.90
23100;DHT22;53791;50.696;4.396;2023-09-18T08:04:44;20.90;99.90
23100;DHT22;53791;50.696;4.396;2023-09-18T08:07:12;21.00;99.90
23100;DHT22;53791;50.696;4.396;2023-09-18T08:09:39;21.00;99.90
23100;DHT22;53791;50.696;4.396;2023-09-18T08:12:07;21.00;99.90
23100;DHT22;53791;50.696;4.396;2023-09-18T08:14:35;21.00;99.90
23100;DHT22;53791;50.696;4.396;2023-09-18T08:17:05;20.90;99.90
23100;DHT22;53791;50.696;4.396;2023-09-18T08:19:33;20.80;99.90
23100;DHT22;53791;50.696;4.396;2023-09-18T08:22:03;20.80;99.90
23100;DHT22;53791;50.696;4.396;2023-09-18T08:24:30;20.70;99.90
23100;DHT22;53791;50.696;4.396;2023-09-18T08:26:58;20.60;99.90
23100;DHT22;53791;50.696;4.396;2023-09-18T08:29:25;20.60;99.90
23100;DHT22;53791;50.696;4.396;2023-09-18T08:31:53;20.70;99.90
23100;DHT22;53791;50.696;4.396;2023-09-18T08:34:20;20.70;99.90
23100;DHT22;53791;50.696;4.396;2023-09-18T08:36:48;20.70;99.90
23100;DHT22;53791;50.696;4.396;2023-09-18T08:39:16;20.70;99.90
23100;DHT22;53791;50.696;4.396;2023-09-18T08:41:46;20.60;99.90
23100;DHT22;53791;50.696;4.396;2023-09-18T08:44:15;20.50;99.90
23100;DHT22;53791;50.696;4.396;2023-09-18T08:46:44;20.40;99.90
23100;DHT22;53791;50.696;4.396;2023-09-18T08:49:12;20.30;99.90
23100;DHT22;53791;50.696;4.396;2023-09-18T08:51:42;20.40;99.90
23100;DHT22;53791;50.696;4.396;2023-09-18T08:54:09;20.30;99.90
23100;DHT22;53791;50.696;4.396;2023-09-18T08:56:37;20.20;99.90
23100;DHT22;53791;50.696;4.396;2023-09-18T08:59:05;20.20;99.90
23100;DHT22;53791;50.696;4.396;2023-09-18T09:01:32;20.20;99.90
23100;DHT22;53791;50.696;4.396;2023-09-18T09:04:00;20.20;99.90
23100;DHT22;53791;50.696;4.396;2023-09-18T09:06:28;20.30;99.90
23100;DHT22;53791;50.696;4.396;2023-09-18T09:08:55;20.40;99.90
23100;DHT22;53791;50.696;4.396;2023-09-18T09:11:23;20.40;99.90
23100;DHT22;53791;50.696;4.396;2023-09-18T09:14:12;20.50;99.90
23100;DHT22;53791;50.696;4.396;2023-09-18T09:16:46;20.60;99.90
23100;DHT22;53791;50.696;4.396;2023-09-18T09:19:18;20.60;99.90
23100;DHT22;53791;50.696;4.396;2023-09-18T09:21:47;20.60;99.90
23100;DHT22;53791;50.696;4.396;2023-09-18T09:24:17;20.60;99.90
23100;DHT22;53791;50.696;4.396;2023-09-18T09:26:56;20.70;99.90
23100;DHT22;53791;50.696;4.396;2023-09-18T09:29:19;20.70;99.90
23100;DHT22;53791;50.696;4.396;2023-09-18T09:31:47;20.70;99.90
23100;DHT22;53791;50.696;4.396;2023-09-18T09:34:27;20.80;99.90
23100;DHT22;53791;50.696;4.396;2023-09-18T09:36:56;20.80;99.90
23100;DHT22;53791;50.696;4.396;2023-09-18T09:39:26;20.80;99.90
23100;DHT22;53791;50.696;4.396;2023-09-18T09:41:54;20.80;99.90
23100;DHT22;53791;50.696;4.396;2023-09-18T09:44:21;20.90;99.90
23100;DHT22;53791;50.696;4.396;2023-09-18T09:46:50;21.00;99.90
23100;DHT22;53791;50.696;4.396;2023-09-18T09:49:18;21.00;99.90
23100;DHT22;53791;50.696;4.396;2023-09-18T09:51:51;21.00;99.90
23100;DHT22;53791;50.696;4.396;2023-09-18T09:54:35;21.00;99.90
23100;DHT22;53791;50.696;4.396;2023-09-18T09:57:04;21.00;99.90
23100;DHT22;53791;50.696;4.396;2023-09-18T09:59:32;21.00;99.90
23100;DHT22;53791;50.696;4.396;2023-09-18T10:02:02;21.00;99.90
23100;DHT22;53791;50.696;4.396;2023-09-18T10:04:32;21.10;99.90
23100;DHT22;53791;50.696;4.396;2023-09-18T10:07:06;21.30;99.90
23100;DHT22;53791;50.696;4.396;2023-09-18T10:09:36;21.50;99.90
23100;DHT22;53791;50.696;4.396;2023-09-18T10:12:12;21.80;99.90
23100;DHT22;53791;50.696;4.396;2023-09-18T10:14:36;22.00;99.90
23100;DHT22;53791;50.696;4.396;2023-09-18T10:17:15;22.10;99.90
23100;DHT22;53791;50.696;4.396;2023-09-18T10:20:02;22.10;99.90
23100;DHT22;53791;50.696;4.396;2023-09-18T10:22:31;22.00;99.90
23100;DHT22;53791;50.696;4.396;2023-09-18T10:27:39;21.90;99.90
23100;DHT22;53791;50.696;4.396;2023-09-18T10:30:09;21.70;99.90
23100;DHT22;53791;50.696;4.396;2023-09-18T10:32:40;21.60;99.90
23100;DHT22;53791;50.696;4.396;2023-09-18T10:35:09;21.60;99.90
23100;DHT22;53791;50.696;4.396;2023-09-18T10:37:39;21.40;99.90
23100;DHT22;53791;50.696;4.396;2023-09-18T10:40:08;21.30;99.90
23100;DHT22;53791;50.696;4.396;2023-09-18T10:42:38;21.30;99.90
23100;DHT22;53791;50.696;4.396;2023-09-18T10:45:09;21.50;99.90
23100;DHT22;53791;50.696;4.396;2023-09-18T10:47:40;21.70;99.90
23100;DHT22;53791;50.696;4.396;2023-09-18T10:50:09;21.50;99.90
23100;DHT22;53791;50.696;4.396;2023-09-18T10:52:42;21.60;99.90
23100;DHT22;53791;50.696;4.396;2023-09-18T10:55:11;21.70;99.90
23100;DHT22;53791;50.696;4.396;2023-09-18T10:57:49;21.70;99.90
23100;DHT22;53791;50.696;4.396;2023-09-18T11:00:07;21.90;99.90
23100;DHT22;53791;50.696;4.396;2023-09-18T11:02:37;21.90;99.90
23100;DHT22;53791;50.696;4.396;2023-09-18T11:05:05;22.00;99.90
23100;DHT22;53791;50.696;4.396;2023-09-18T11:07:33;22.00;99.90
23100;DHT22;53791;50.696;4.396;2023-09-18T11:10:24;22.10;99.90
23100;DHT22;53791;50.696;4.396;2023-09-18T11:12:44;22.20;99.90
23100;DHT22;53791;50.696;4.396;2023-09-18T11:15:30;22.20;99.90
23100;DHT22;53791;50.696;4.396;2023-09-18T11:18:02;22.20;99.90
23100;DHT22;53791;50.696;4.396;2023-09-18T11:20:29;22.20;99.90
23100;DHT22;53791;50.696;4.396;2023-09-18T11:22:59;22.20;99.90
23100;DHT22;53791;50.696;4.396;2023-09-18T11:25:38;22.20;99.90
23100;DHT22;53791;50.696;4.396;2023-09-18T11:28:15;22.20;99.90
23100;DHT22;53791;50.696;4.396;2023-09-18T11:30:56;22.20;99.90
23100;DHT22;53791;50.696;4.396;2023-09-18T11:33:39;22.30;99.90
23100;DHT22;53791;50.696;4.396;2023-09-18T11:36:11;22.40;99.90
23100;DHT22;53791;50.696;4.396;2023-09-18T11:38:58;22.50;99.90
23100;DHT22;53791;50.696;4.396;2023-09-18T11:41:33;22.50;99.90
23100;DHT22;53791;50.696;4.396;2023-09-18T11:44:31;22.40;99.90
23100;DHT22;53791;50.696;4.396;2023-09-18T11:46:56;22.50;99.90
23100;DHT22;53791;50.696;4.396;2023-09-18T11:49:25;22.50;99.90
23100;DHT22;53791;50.696;4.396;2023-09-18T11:51:58;22.50;99.90
23100;DHT22;53791;50.696;4.396;2023-09-18T11:54:28;22.50;99.90
23100;DHT22;53791;50.696;4.396;2023-09-18T11:57:10;22.50;99.90
23100;DHT22;53791;50.696;4.396;2023-09-18T11:59:41;22.50;99.90
23100;DHT22;53791;50.696;4.396;2023-09-18T12:02:29;22.50;99.90
23100;DHT22;53791;50.696;4.396;2023-09-18T12:05:11;22.60;99.90
23100;DHT22;53791;50.696;4.396;2023-09-18T12:07:41;22.70;99.90
23100;DHT22;53791;50.696;4.396;2023-09-18T12:10:17;22.70;99.90
23100;DHT22;53791;50.696;4.396;2023-09-18T12:12:42;22.70;99.90
23100;DHT22;53791;50.696;4.396;2023-09-18T12:15:14;22.70;99.90
23100;DHT22;53791;50.696;4.396;2023-09-18T12:17:42;22.70;99.90
23100;DHT22;53791;50.696;4.396;2023-09-18T12:20:15;22.60;99.90
23100;DHT22;53791;50.696;4.396;2023-09-18T12:22:49;22.70;99.90
23100;DHT22;53791;50.696;4.396;2023-09-18T12:25:17;22.70;99.90
23100;DHT22;53791;50.696;4.396;2023-09-18T12:27:45;22.70;99.90
23100;DHT22;53791;50.696;4.396;2023-09-18T12:30:13;22.80;99.90
23100;DHT22;53791;50.696;4.396;2023-09-18T12:32:45;22.90;99.90
23100;DHT22;53791;50.696;4.396;2023-09-18T12:35:14;23.10;99.90
23100;DHT22;53791;50.696;4.396;2023-09-18T12:37:42;23.10;99.90
23100;DHT22;53791;50.696;4.396;2023-09-18T12:40:27;23.10;99.90
23100;DHT22;53791;50.696;4.396;2023-09-18T12:42:56;23.10;99.90
23100;DHT22;53791;50.696;4.396;2023-09-18T12:45:25;23.20;99.90
23100;DHT22;53791;50.696;4.396;2023-09-18T12:47:55;23.30;99.90
23100;DHT22;53791;50.696;4.396;2023-09-18T12:50:24;23.40;99.90
23100;DHT22;53791;50.696;4.396;2023-09-18T12:52:52;23.60;99.90
23100;DHT22;53791;50.696;4.396;2023-09-18T12:55:26;23.60;99.90
23100;DHT22;53791;50.696;4.396;2023-09-18T12:57:54;23.50;99.90
23100;DHT22;53791;50.696;4.396;2023-09-18T13:00:22;23.60;99.90
23100;DHT22;53791;50.696;4.396;2023-09-18T13:02:52;23.70;99.90
23100;DHT22;53791;50.696;4.396;2023-09-18T13:05:23;23.80;99.90
23100;DHT22;53791;50.696;4.396;2023-09-18T13:07:53;23.90;99.90
23100;DHT22;53791;50.696;4.396;2023-09-18T13:10:22;24.00;99.90
23100;DHT22;53791;50.696;4.396;2023-09-18T13:12:51;24.00;99.90
23100;DHT22;53791;50.696;4.396;2023-09-18T13:15:31;24.10;99.90
23100;DHT22;53791;50.696;4.396;2023-09-18T13:18:01;24.20;99.90
23100;DHT22;53791;50.696;4.396;2023-09-18T13:20:30;24.10;99.90
23100;DHT22;53791;50.696;4.396;2023-09-18T13:22:59;24.10;99.90
23100;DHT22;53791;50.696;4.396;2023-09-18T13:25:31;24.20;99.90
23100;DHT22;53791;50.696;4.396;2023-09-18T13:28:01;24.40;99.90
23100;DHT22;53791;50.696;4.396;2023-09-18T13:30:30;24.50;99.90
23100;DHT22;53791;50.696;4.396;2023-09-18T13:33:10;24.70;99.90
23100;DHT22;53791;50.696;4.396;2023-09-18T13:35:41;24.90;99.90
23100;DHT22;53791;50.696;4.396;2023-09-18T13:38:11;25.00;99.90
23100;DHT22;53791;50.696;4.396;2023-09-18T13:40:40;25.10;99.90
23100;DHT22;53791;50.696;4.396;2023-09-18T13:43:09;25.20;99.90
23100;DHT22;53791;50.696;4.396;2023-09-18T13:45:38;25.30;99.90
23100;DHT22;53791;50.696;4.396;2023-09-18T13:48:07;25.30;99.90
23100;DHT22;53791;50.696;4.396;2023-09-18T13:50:36;25.40;99.90
23100;DHT22;53791;50.696;4.396;2023-09-18T13:53:05;25.50;99.90
23100;DHT22;53791;50.696;4.396;2023-09-18T13:55:34;25.50;99.90
23100;DHT22;53791;50.696;4.396;2023-09-18T13:58:02;25.50;99.90
23100;DHT22;53791;50.696;4.396;2023-09-18T14:00:31;25.60;99.90
23100;DHT22;53791;50.696;4.396;2023-09-18T14:02:59;25.50;99.90
23100;DHT22;53791;50.696;4.396;2023-09-18T14:05:28;25.30;99.90
23100;DHT22;53791;50.696;4.396;2023-09-18T14:07:57;25.30;99.90
23100;DHT22;53791;50.696;4.396;2023-09-18T14:10:27;25.30;99.90
23100;DHT22;53791;50.696;4.396;2023-09-18T14:12:58;25.10;99.90
23100;DHT22;53791;50.696;4.396;2023-09-18T14:15:26;25.10;99.90
23100;DHT22;53791;50.696;4.396;2023-09-18T14:17:57;25.20;99.90
23100;DHT22;53791;50.696;4.396;2023-09-18T14:20:26;25.20;99.90
23100;DHT22;53791;50.696;4.396;2023-09-18T14:22:59;25.10;99.90
23100;DHT22;53791;50.696;4.396;2023-09-18T14:25:24;25.00;99.90
23100;DHT22;53791;50.696;4.396;2023-09-18T14:27:51;24.90;99.90
23100;DHT22;53791;50.696;4.396;2023-09-18T14:30:19;24.80;99.90
23100;DHT22;53791;50.696;4.396;2023-09-18T14:32:46;24.50;99.90
23100;DHT22;53791;50.696;4.396;2023-09-18T14:35:14;24.40;99.90
23100;DHT22;53791;50.696;4.396;2023-09-18T14:37:42;24.20;99.90
23100;DHT22;53791;50.696;4.396;2023-09-18T14:40:09;24.20;99.90
23100;DHT22;53791;50.696;4.396;2023-09-18T14:42:39;24.20;99.90
23100;DHT22;53791;50.696;4.396;2023-09-18T14:45:07;24.00;99.90
23100;DHT22;53791;50.696;4.396;2023-09-18T14:47:37;23.80;99.90
23100;DHT22;53791;50.696;4.396;2023-09-18T14:50:05;23.70;99.90
23100;DHT22;53791;50.696;4.396;2023-09-18T14:52:33;23.50;99.90
23100;DHT22;53791;50.696;4.396;2023-09-18T14:55:00;23.30;99.90
23100;DHT22;53791;50.696;4.396;2023-09-18T14:57:29;23.10;99.90
23100;DHT22;53791;50.696;4.396;2023-09-18T14:59:57;23.10;99.90
23100;DHT22;53791;50.696;4.396;2023-09-18T15:02:24;22.80;99.90
23100;DHT22;53791;50.696;4.396;2023-09-18T15:04:53;22.70;99.90
23100;DHT22;53791;50.696;4.396;2023-09-18T15:07:21;22.60;99.90
23100;DHT22;53791;50.696;4.396;2023-09-18T15:09:49;22.30;99.90
23100;DHT22;53791;50.696;4.396;2023-09-18T15:12:16;21.90;99.90
23100;DHT22;53791;50.696;4.396;2023-09-18T15:14:44;21.80;99.90
23100;DHT22;53791;50.696;4.396;2023-09-18T15:17:12;21.60;99.90
23100;DHT22;53791;50.696;4.396;2023-09-18T15:19:41;21.60;99.90
23100;DHT22;53791;50.696;4.396;2023-09-18T15:22:09;21.60;99.90
23100;DHT22;53791;50.696;4.396;2023-09-18T15:24:36;21.60;99.90
23100;DHT22;53791;50.696;4.396;2023-09-18T15:27:04;21.60;99.90
23100;DHT22;53791;50.696;4.396;2023-09-18T15:29:32;21.60;99.90
23100;DHT22;53791;50.696;4.396;2023-09-18T15:31:59;21.60;99.90
23100;DHT22;53791;50.696;4.396;2023-09-18T15:34:28;21.60;99.90
23100;DHT22;53791;50.696;4.396;2023-09-18T15:36:56;21.60;99.90
23100;DHT22;53791;50.696;4.396;2023-09-18T15:39:23;21.70;99.90
23100;DHT22;53791;50.696;4.396;2023-09-18T15:41:52;21.70;99.90
23100;DHT22;53791;50.696;4.396;2023-09-18T15:44:27;21.70;99.90